Time;durP1;ratioP1;P1;durP2;ratioP2;P2;SDS_P1;SDS_P2;PMS_P1;PMS_P2;Temp;Humidity;BMP_temperature;BMP_pressure;BME280_temperature;BME280_humidity;BME280_pressure;Samples;Min_cycle;Max_cycle;Signal;HPM_P1;HPM_P2
2021/10/08 00:00:49;;;;;;;17.23;11.88;;;7.60;99.90;;;;;;4972646;28;20055;-79
2021/10/08 00:03:15;;;;;;;32.60;11.90;;;7.60;99.90;;;;;;4978875;28;20055;-79
2021/10/08 00:05:41;;;;;;;24.83;10.82;;;7.60;99.90;;;;;;4975512;28;20039;-81
2021/10/08 00:08:07;;;;;;;24.80;10.35;;;7.50;99.90;;;;;;4964249;28;20442;-80
2021/10/08 00:10:34;;;;;;;142.27;11.90;;;7.60;99.90;;;;;;4974668;28;20057;-79
2021/10/08 00:13:00;;;;;;;11.07;8.77;;;7.60;99.90;;;;;;4974915;28;20481;-80
2021/10/08 00:15:26;;;;;;;21.73;9.57;;;7.50;99.90;;;;;;4974556;28;20078;-82
2021/10/08 00:17:52;;;;;;;70.28;10.98;;;7.60;99.90;;;;;;4968615;28;20390;-79
2021/10/08 00:20:18;;;;;;;23.65;9.77;;;7.50;99.90;;;;;;4972591;28;20049;-81
2021/10/08 00:22:44;;;;;;;43.25;10.13;;;7.50;99.90;;;;;;4974609;28;20064;-80
2021/10/08 00:25:10;;;;;;;61.95;11.45;;;7.50;99.90;;;;;;4977682;28;20805;-78
2021/10/08 00:27:35;;;;;;;17.83;11.15;;;7.40;99.90;;;;;;4964252;28;20485;-81
2021/10/08 00:30:02;;;;;;;29.55;10.95;;;7.50;99.90;;;;;;4985545;28;20057;-81
2021/10/08 00:32:28;;;;;;;18.73;10.27;;;7.50;99.90;;;;;;4951601;28;20042;-84
2021/10/08 00:34:54;;;;;;;19.10;10.13;;;7.50;99.90;;;;;;4979784;28;20162;-83
2021/10/08 00:37:19;;;;;;;62.60;12.73;;;7.40;99.90;;;;;;4974310;28;20054;-80
2021/10/08 00:39:45;;;;;;;17.98;12.20;;;7.40;99.90;;;;;;4979490;28;20038;-78
2021/10/08 00:42:11;;;;;;;37.80;11.75;;;7.40;99.90;;;;;;4970871;28;20046;-79
2021/10/08 00:44:37;;;;;;;22.48;11.52;;;7.40;99.90;;;;;;4969696;28;20034;-82
2021/10/08 00:47:13;;;;;;;29.30;12.30;;;7.40;99.90;;;;;;4972525;28;20373;-80
2021/10/08 00:49:39;;;;;;;27.77;13.13;;;7.50;99.90;;;;;;4983044;28;20049;-79
2021/10/08 00:52:05;;;;;;;46.40;13.10;;;7.40;99.90;;;;;;4959349;28;20046;-82
2021/10/08 00:54:30;;;;;;;35.78;11.23;;;7.40;99.90;;;;;;4972075;28;20126;-79
2021/10/08 00:56:58;;;;;;;220.35;16.02;;;7.40;99.90;;;;;;5000519;28;20388;-82
2021/10/08 00:59:26;;;;;;;107.63;13.50;;;7.30;99.90;;;;;;4996053;28;20375;-80
2021/10/08 01:01:52;;;;;;;84.32;14.57;;;7.30;99.90;;;;;;4971268;28;20566;-80
2021/10/08 01:04:18;;;;;;;140.90;14.73;;;7.30;99.90;;;;;;4974181;28;20189;-80
2021/10/08 01:06:44;;;;;;;235.27;15.45;;;7.30;99.90;;;;;;4990157;28;20120;-82
2021/10/08 01:09:09;;;;;;;110.88;14.85;;;7.30;99.90;;;;;;4958364;28;20177;-83
2021/10/08 01:11:36;;;;;;;88.03;13.88;;;7.30;99.90;;;;;;4973380;28;20541;-83
2021/10/08 01:14:03;;;;;;;258.05;15.38;;;7.30;99.90;;;;;;4972265;28;20058;-83
2021/10/08 01:16:29;;;;;;;46.28;14.07;;;7.20;99.90;;;;;;4980031;28;20050;-79
2021/10/08 01:18:54;;;;;;;336.10;20.50;;;7.30;99.90;;;;;;4974093;28;20042;-80
2021/10/08 01:21:20;;;;;;;55.50;13.82;;;7.20;99.90;;;;;;4992479;28;20052;-80
2021/10/08 01:23:46;;;;;;;43.47;13.23;;;7.20;99.90;;;;;;4992776;28;20054;-81
2021/10/08 01:26:12;;;;;;;119.93;15.40;;;7.30;99.90;;;;;;4974099;28;20041;-81
2021/10/08 01:28:38;;;;;;;239.38;17.10;;;7.30;99.90;;;;;;4983512;28;20495;-82
2021/10/08 01:31:04;;;;;;;88.20;14.45;;;7.30;99.90;;;;;;5010170;28;20038;-82
2021/10/08 01:33:29;;;;;;;91.20;15.55;;;7.30;99.90;;;;;;5001995;28;20049;-80
2021/10/08 01:35:55;;;;;;;42.58;15.05;;;7.20;99.90;;;;;;4992195;28;20061;-80
2021/10/08 01:38:21;;;;;;;39.17;13.68;;;7.20;99.90;;;;;;4993403;28;20091;-79
2021/10/08 01:40:46;;;;;;;235.80;19.17;;;7.30;99.90;;;;;;4991443;28;20121;-80
2021/10/08 01:43:12;;;;;;;94.43;16.20;;;7.20;99.90;;;;;;4989794;28;20088;-82
2021/10/08 01:45:37;;;;;;;514.30;22.88;;;7.20;99.90;;;;;;4990051;28;20098;-79
2021/10/08 01:48:03;;;;;;;452.25;23.77;;;7.10;99.90;;;;;;4981726;28;20042;-79
2021/10/08 01:50:30;;;;;;;248.00;17.85;;;7.10;99.90;;;;;;4988155;28;20042;-78
2021/10/08 01:52:58;;;;;;;135.45;14.63;;;7.10;99.90;;;;;;4990051;28;20049;-80
2021/10/08 01:55:24;;;;;;;44.35;14.52;;;7.00;99.90;;;;;;4992256;28;20054;-79
2021/10/08 01:57:50;;;;;;;64.93;14.00;;;7.10;99.90;;;;;;4990227;28;20126;-82
2021/10/08 02:00:15;;;;;;;80.15;13.82;;;7.10;99.90;;;;;;4988605;28;20421;-82
2021/10/08 02:02:41;;;;;;;279.85;16.92;;;7.10;99.90;;;;;;4976950;28;20127;-80
2021/10/08 02:05:07;;;;;;;225.48;15.80;;;7.00;99.90;;;;;;4989075;28;20053;-82
2021/10/08 02:07:33;;;;;;;168.32;15.05;;;7.00;99.90;;;;;;4992141;28;20061;-82
2021/10/08 02:09:59;;;;;;;97.82;13.68;;;7.00;99.90;;;;;;4986507;28;20092;-81
2021/10/08 02:12:25;;;;;;;201.50;15.80;;;6.80;99.90;;;;;;5013750;28;20030;-79
2021/10/08 02:14:50;;;;;;;97.25;13.30;;;6.80;99.90;;;;;;4988109;28;20044;-82
2021/10/08 02:17:16;;;;;;;89.28;14.23;;;6.80;99.90;;;;;;4990737;28;20404;-83
2021/10/08 02:19:42;;;;;;;126.28;13.20;;;6.80;99.90;;;;;;5003693;28;20059;-81
2021/10/08 02:22:08;;;;;;;121.93;12.65;;;6.80;99.90;;;;;;4975378;28;20061;-80
2021/10/08 02:24:33;;;;;;;69.35;13.05;;;6.70;99.90;;;;;;5004215;28;20485;-81
2021/10/08 02:26:59;;;;;;;86.38;13.40;;;6.70;99.90;;;;;;4990654;28;20034;-80
2021/10/08 02:29:25;;;;;;;28.83;12.00;;;6.60;99.90;;;;;;4991499;28;20397;-81
2021/10/08 02:31:52;;;;;;;171.80;14.80;;;6.70;99.90;;;;;;4993321;28;20045;-81
2021/10/08 02:34:19;;;;;;;38.03;12.50;;;6.70;99.90;;;;;;4976059;28;20386;-84
2021/10/08 02:36:44;;;;;;;41.55;12.45;;;6.70;99.90;;;;;;4973341;28;20038;-80
2021/10/08 02:39:12;;;;;;;36.38;12.88;;;6.80;99.90;;;;;;4983052;28;20057;-79
2021/10/08 02:41:38;;;;;;;74.85;13.38;;;6.80;99.90;;;;;;4992464;28;20353;-83
2021/10/08 02:44:04;;;;;;;83.88;12.57;;;6.90;99.90;;;;;;4990681;28;20041;-79
2021/10/08 02:46:30;;;;;;;16.85;11.48;;;6.90;99.90;;;;;;4989591;28;20052;-80
2021/10/08 02:48:56;;;;;;;29.90;12.32;;;6.80;99.90;;;;;;4995167;28;20046;-81
2021/10/08 02:51:22;;;;;;;23.73;11.45;;;6.80;99.90;;;;;;4991994;28;20041;-80
2021/10/08 02:53:47;;;;;;;119.35;14.13;;;6.80;99.90;;;;;;5007452;28;20057;-80
2021/10/08 02:56:13;;;;;;;38.40;12.18;;;6.80;99.90;;;;;;4971581;28;20045;-80
2021/10/08 02:58:39;;;;;;;50.75;11.77;;;6.80;99.90;;;;;;4972425;28;20060;-78
2021/10/08 03:01:05;;;;;;;286.05;18.08;;;6.80;99.90;;;;;;4990264;28;20153;-79
2021/10/08 03:03:31;;;;;;;109.90;13.55;;;6.80;99.90;;;;;;4976727;28;20111;-82
2021/10/08 03:05:57;;;;;;;63.72;12.32;;;6.80;99.90;;;;;;4999281;28;20935;-80
2021/10/08 03:08:23;;;;;;;117.72;13.35;;;6.80;99.90;;;;;;4992686;28;20104;-79
2021/10/08 03:10:48;;;;;;;339.35;16.40;;;6.80;99.90;;;;;;4980370;28;20508;-83
2021/10/08 03:13:14;;;;;;;252.82;15.43;;;6.70;99.90;;;;;;4972995;28;20046;-82
2021/10/08 03:15:40;;;;;;;38.33;11.95;;;6.70;99.90;;;;;;4987923;28;20046;-80
2021/10/08 03:18:06;;;;;;;46.17;12.82;;;6.80;99.90;;;;;;5007973;28;20045;-79
2021/10/08 03:20:35;;;;;;;35.38;12.20;;;6.80;99.90;;;;;;4972694;28;20057;-81
2021/10/08 03:23:00;;;;;;;152.13;13.20;;;6.80;99.90;;;;;;4975393;28;20063;-81
2021/10/08 03:25:26;;;;;;;60.30;13.57;;;6.80;99.90;;;;;;4969833;28;20050;-80
2021/10/08 03:27:52;;;;;;;48.65;12.32;;;6.80;99.90;;;;;;4973693;28;20054;-78
2021/10/08 03:30:17;;;;;;;153.00;14.15;;;6.90;99.90;;;;;;4963867;28;20057;-84
2021/10/08 03:32:44;;;;;;;54.30;12.85;;;6.90;99.90;;;;;;4956129;28;20502;-80
2021/10/08 03:35:10;;;;;;;63.33;14.20;;;6.90;99.90;;;;;;4969672;28;20042;-82
2021/10/08 03:40:16;;;;;;;40.97;12.60;;;6.90;99.90;;;;;;4968689;28;20050;-80
2021/10/08 03:42:42;;;;;;;39.10;12.68;;;7.00;99.90;;;;;;4971504;28;20055;-78
2021/10/08 03:45:12;;;;;;;53.38;13.57;;;7.00;99.90;;;;;;4953834;28;20049;-79
2021/10/08 03:47:56;;;;;;;106.05;14.32;;;7.00;99.90;;;;;;4968992;28;20145;-82
2021/10/08 03:50:22;;;;;;;120.88;14.23;;;7.00;99.90;;;;;;4939838;28;20050;-79
2021/10/08 03:52:48;;;;;;;123.15;14.88;;;7.20;99.90;;;;;;4970330;28;20118;-80
2021/10/08 03:55:14;;;;;;;76.60;14.45;;;7.00;99.90;;;;;;4967968;28;20149;-81
2021/10/08 03:57:40;;;;;;;50.10;13.48;;;7.00;99.90;;;;;;4965829;28;20042;-82
2021/10/08 04:00:07;;;;;;;45.22;15.20;;;7.00;99.90;;;;;;4955307;28;20059;-79
2021/10/08 04:02:33;;;;;;;72.53;14.57;;;7.10;99.90;;;;;;4968927;28;20030;-81
2021/10/08 04:04:58;;;;;;;124.30;15.05;;;7.10;99.90;;;;;;4967030;28;20053;-80
2021/10/08 04:07:24;;;;;;;33.45;14.73;;;7.00;99.90;;;;;;4950271;28;20133;-80
2021/10/08 04:09:49;;;;;;;61.00;15.60;;;7.00;99.90;;;;;;4947612;28;20100;-83
2021/10/08 04:12:15;;;;;;;40.20;14.00;;;7.00;99.90;;;;;;4973150;28;20104;-79
2021/10/08 04:14:41;;;;;;;28.10;13.50;;;7.10;99.90;;;;;;4947827;28;20126;-78
2021/10/08 04:17:06;;;;;;;53.95;14.40;;;7.10;99.90;;;;;;4954094;28;20053;-78
2021/10/08 04:19:32;;;;;;;48.42;14.82;;;7.10;99.90;;;;;;4987152;28;20137;-78
2021/10/08 04:21:57;;;;;;;144.52;17.27;;;7.00;99.90;;;;;;4973907;28;20069;-78
2021/10/08 04:24:23;;;;;;;125.85;16.75;;;7.10;99.90;;;;;;5001918;28;20989;-79
2021/10/08 04:26:49;;;;;;;28.65;14.60;;;7.10;99.90;;;;;;5007496;28;20072;-80
2021/10/08 04:29:15;;;;;;;52.03;15.40;;;7.10;99.90;;;;;;5007472;28;20033;-82
2021/10/08 04:31:40;;;;;;;48.13;15.50;;;7.10;99.90;;;;;;5005745;28;20029;-78
2021/10/08 04:34:06;;;;;;;34.10;14.05;;;7.10;99.90;;;;;;5002610;28;20396;-81
2021/10/08 04:36:32;;;;;;;126.47;16.83;;;7.10;99.90;;;;;;5004131;28;20092;-80
2021/10/08 04:38:57;;;;;;;228.45;18.88;;;7.10;99.90;;;;;;5009228;28;20144;-80
2021/10/08 04:41:23;;;;;;;186.15;18.00;;;7.10;99.90;;;;;;5009012;28;20084;-78
2021/10/08 04:43:48;;;;;;;46.63;13.65;;;7.20;99.90;;;;;;5001054;28;20049;-78
2021/10/08 04:46:14;;;;;;;61.72;15.32;;;7.10;99.90;;;;;;4989010;28;20124;-80
2021/10/08 04:48:40;;;;;;;38.20;14.32;;;7.00;99.90;;;;;;5002480;28;20041;-80
2021/10/08 04:51:05;;;;;;;62.05;14.35;;;7.20;99.90;;;;;;4996744;28;20059;-82
2021/10/08 04:53:31;;;;;;;213.80;17.00;;;7.10;99.90;;;;;;5026560;28;20037;-79
2021/10/08 04:55:57;;;;;;;100.32;13.93;;;7.10;99.90;;;;;;5009685;28;20433;-81
2021/10/08 04:58:23;;;;;;;45.45;13.88;;;7.00;99.90;;;;;;5025302;28;20477;-80
2021/10/08 05:00:49;;;;;;;40.38;14.95;;;7.00;99.90;;;;;;5011932;28;20069;-80
2021/10/08 05:03:19;;;;;;;85.05;14.85;;;7.00;99.90;;;;;;4993175;28;20128;-80
2021/10/08 05:05:52;;;;;;;163.50;15.20;;;7.00;99.90;;;;;;5012922;28;20034;-78
2021/10/08 05:08:19;;;;;;;33.22;13.40;;;7.00;99.90;;;;;;5012190;28;20033;-79
2021/10/08 05:10:46;;;;;;;142.18;17.42;;;6.90;99.90;;;;;;5009329;28;20495;-80
2021/10/08 05:13:12;;;;;;;156.23;15.70;;;6.90;99.90;;;;;;4996971;28;20092;-81
2021/10/08 05:15:38;;;;;;;131.52;18.13;;;6.90;99.90;;;;;;5012330;28;20064;-79
2021/10/08 05:18:04;;;;;;;91.15;15.82;;;6.80;99.90;;;;;;5013832;28;20041;-81
2021/10/08 05:20:30;;;;;;;101.50;15.75;;;6.80;99.90;;;;;;5005641;28;20380;-81
2021/10/08 05:22:56;;;;;;;114.95;15.75;;;7.00;99.90;;;;;;5013167;28;20053;-79
2021/10/08 05:25:22;;;;;;;130.82;16.98;;;6.80;99.90;;;;;;5006145;28;20044;-81
2021/10/08 05:27:47;;;;;;;103.80;15.90;;;6.80;99.90;;;;;;4990722;28;20052;-79
2021/10/08 05:30:14;;;;;;;116.30;15.07;;;6.80;99.90;;;;;;5010797;28;20380;-81
2021/10/08 05:32:40;;;;;;;70.45;15.80;;;6.80;99.90;;;;;;5011009;28;20107;-81
2021/10/08 05:35:07;;;;;;;56.40;14.90;;;6.70;99.90;;;;;;5009140;28;20110;-80
2021/10/08 05:37:33;;;;;;;69.60;15.15;;;6.80;99.90;;;;;;5010921;28;20037;-79
2021/10/08 05:39:59;;;;;;;234.98;20.23;;;6.80;99.90;;;;;;4992538;28;20053;-80
2021/10/08 05:42:45;;;;;;;113.68;15.73;;;6.70;99.90;;;;;;5008146;28;20044;-80
2021/10/08 05:45:11;;;;;;;172.80;14.77;;;6.70;99.90;;;;;;4994725;28;20525;-78
2021/10/08 05:47:37;;;;;;;179.90;17.65;;;6.70;99.90;;;;;;4996064;28;20120;-77
2021/10/08 05:50:03;;;;;;;168.73;16.52;;;6.60;99.90;;;;;;5009382;28;20140;-76
2021/10/08 05:52:29;;;;;;;284.33;20.48;;;6.60;99.90;;;;;;4993705;28;20544;-77
2021/10/08 05:54:55;;;;;;;113.43;15.70;;;6.60;99.90;;;;;;5006262;28;20063;-79
2021/10/08 05:57:21;;;;;;;44.30;14.98;;;6.60;99.90;;;;;;4989638;28;20085;-79
2021/10/08 05:59:46;;;;;;;40.63;13.98;;;6.60;99.90;;;;;;5012179;28;20057;-78
2021/10/08 06:02:12;;;;;;;49.33;16.17;;;6.60;99.90;;;;;;5008423;28;20076;-78
2021/10/08 06:04:38;;;;;;;78.80;17.73;;;6.80;99.90;;;;;;5026011;28;20045;-78
2021/10/08 06:07:06;;;;;;;32.00;14.98;;;6.70;99.90;;;;;;5010960;28;20393;-80
2021/10/08 06:09:33;;;;;;;7.40;5.22;;;6.70;99.90;;;;;;4992188;28;20392;-74
2021/10/08 06:11:59;;;;;;;65.20;15.10;;;8.00;99.90;;;;;;5010832;28;20041;-82
2021/10/08 06:14:25;;;;;;;42.85;14.75;;;7.70;99.90;;;;;;4994152;28;20460;-77
2021/10/08 06:16:50;;;;;;;118.25;16.25;;;7.50;99.90;;;;;;5009977;28;20041;-80
2021/10/08 06:19:16;;;;;;;220.57;20.25;;;7.30;99.90;;;;;;5010203;28;20049;-80
2021/10/08 06:21:41;;;;;;;38.80;17.25;;;7.20;99.90;;;;;;5011840;28;20080;-79
2021/10/08 06:24:07;;;;;;;143.85;19.92;;;7.10;99.90;;;;;;4993600;28;20111;-79
2021/10/08 06:26:33;;;;;;;33.38;18.02;;;7.00;99.90;;;;;;4988709;28;20042;-79
2021/10/08 06:28:59;;;;;;;116.28;19.02;;;7.00;99.90;;;;;;5007485;28;20033;-82
2021/10/08 06:31:24;;;;;;;28.00;17.10;;;7.00;99.90;;;;;;5005172;28;20096;-79
2021/10/08 06:33:50;;;;;;;35.10;18.27;;;7.20;99.90;;;;;;4990069;28;20052;-81
2021/10/08 06:36:15;;;;;;;40.10;18.77;;;7.10;99.90;;;;;;5008535;28;20045;-81
2021/10/08 06:38:41;;;;;;;48.53;20.48;;;7.00;99.90;;;;;;5006567;28;20795;-78
2021/10/08 06:41:07;;;;;;;98.13;21.98;;;7.10;99.90;;;;;;5007746;28;20041;-78
2021/10/08 06:43:34;;;;;;;28.98;17.80;;;7.00;99.90;;;;;;4992908;28;20045;-81
2021/10/08 06:46:00;;;;;;;33.22;18.88;;;7.10;99.90;;;;;;5025812;28;20041;-79
2021/10/08 06:48:26;;;;;;;31.92;19.67;;;7.10;99.90;;;;;;4989875;28;20330;-81
2021/10/08 06:50:52;;;;;;;41.72;20.60;;;7.20;99.90;;;;;;5005193;28;20050;-81
2021/10/08 06:53:17;;;;;;;33.80;20.42;;;7.20;99.90;;;;;;4993574;28;20149;-80
2021/10/08 06:55:44;;;;;;;35.35;20.00;;;7.20;99.90;;;;;;4995426;28;20045;-83
2021/10/08 06:58:09;;;;;;;32.78;19.77;;;7.20;99.90;;;;;;5010425;28;20049;-83
2021/10/08 07:00:35;;;;;;;33.58;20.27;;;7.90;99.90;;;;;;4993259;28;20412;-80
2021/10/08 07:03:01;;;;;;;39.13;21.90;;;7.70;99.90;;;;;;5007479;28;20045;-78
2021/10/08 07:05:26;;;;;;;34.50;19.52;;;7.30;99.90;;;;;;5021861;28;20413;-78
2021/10/08 07:07:53;;;;;;;31.35;19.88;;;7.40;99.90;;;;;;4990723;28;20053;-81
2021/10/08 07:10:20;;;;;;;29.23;18.67;;;7.40;99.90;;;;;;4991890;28;20041;-81
2021/10/08 07:12:46;;;;;;;27.58;14.18;;;7.40;99.90;;;;;;5022896;28;20115;-82
2021/10/08 07:15:19;;;;;;;30.48;19.98;;;8.30;99.90;;;;;;5029446;28;20033;-83
2021/10/08 07:17:50;;;;;;;34.65;20.60;;;8.30;99.90;;;;;;4994237;28;20435;-83
2021/10/08 07:20:20;;;;;;;34.38;19.58;;;8.00;99.90;;;;;;4994579;28;20247;-83
2021/10/08 07:22:46;;;;;;;37.28;21.23;;;8.50;99.90;;;;;;5010938;28;20069;-82
2021/10/08 07:25:12;;;;;;;34.47;21.08;;;7.90;99.90;;;;;;5010475;28;20218;-84
2021/10/08 07:27:57;;;;;;;42.63;23.00;;;8.10;99.90;;;;;;4996534;28;20041;-84
2021/10/08 07:30:23;;;;;;;45.42;24.63;;;7.90;99.90;;;;;;5008849;28;20037;-83
2021/10/08 07:32:48;;;;;;;46.83;26.10;;;8.40;99.90;;;;;;4996539;28;20044;-83
2021/10/08 07:35:16;;;;;;;45.40;25.60;;;7.80;99.90;;;;;;5028669;28;20563;-84
2021/10/08 07:37:42;;;;;;;42.58;24.08;;;8.20;99.90;;;;;;4997467;28;20120;-83
2021/10/08 07:40:10;;;;;;;42.60;24.77;;;8.60;99.90;;;;;;5014529;28;20045;-84
2021/10/08 07:42:36;;;;;;;45.95;25.80;;;8.00;99.90;;;;;;5031773;28;20052;-83
2021/10/08 07:45:04;;;;;;;52.35;27.33;;;8.10;99.90;;;;;;5005221;28;20041;-84
2021/10/08 07:47:29;;;;;;;50.85;28.00;;;8.00;99.90;;;;;;5005343;28;20049;-83
2021/10/08 07:49:55;;;;;;;27.48;16.27;;;8.00;99.90;;;;;;5010450;28;20391;-82
2021/10/08 07:52:21;;;;;;;25.65;16.20;;;8.20;99.90;;;;;;5009971;28;21710;-82
2021/10/08 07:54:46;;;;;;;45.92;27.60;;;9.00;99.90;;;;;;4994469;28;20045;-80
2021/10/08 07:57:13;;;;;;;44.38;26.23;;;8.80;99.90;;;;;;5008345;28;20044;-82
2021/10/08 07:59:39;;;;;;;46.05;27.05;;;9.10;99.90;;;;;;5010692;28;20049;-80
2021/10/08 08:02:05;;;;;;;53.10;29.02;;;9.10;99.90;;;;;;4993646;28;20440;-82
2021/10/08 08:04:31;;;;;;;51.40;28.60;;;9.00;99.90;;;;;;4991451;28;20534;-81
2021/10/08 08:06:56;;;;;;;52.08;29.08;;;8.60;99.90;;;;;;5006903;28;20038;-82
2021/10/08 08:09:22;;;;;;;56.55;29.67;;;8.60;99.90;;;;;;5012379;28;20051;-82
2021/10/08 08:11:48;;;;;;;52.78;28.95;;;8.90;99.90;;;;;;5045403;28;20049;-82
2021/10/08 08:14:13;;;;;;;57.58;30.42;;;8.80;99.90;;;;;;5034104;28;20044;-83
2021/10/08 08:16:39;;;;;;;60.45;32.38;;;8.40;99.90;;;;;;5010885;28;20445;-82
2021/10/08 08:19:05;;;;;;;58.17;31.48;;;9.40;99.90;;;;;;5032963;28;20052;-82
2021/10/08 08:21:31;;;;;;;65.53;33.22;;;8.80;99.90;;;;;;4998327;28;20124;-82
2021/10/08 08:23:56;;;;;;;73.28;36.33;;;8.90;99.90;;;;;;5033863;28;20057;-82
2021/10/08 08:26:22;;;;;;;79.72;36.58;;;9.40;99.90;;;;;;5014490;28;20489;-82
2021/10/08 08:28:48;;;;;;;72.72;35.42;;;9.70;99.90;;;;;;5000342;28;20034;-83
2021/10/08 08:31:15;;;;;;;69.93;35.25;;;9.10;99.90;;;;;;5012863;28;20136;-84
2021/10/08 08:33:41;;;;;;;75.35;36.70;;;9.90;99.90;;;;;;4999014;28;20124;-83
2021/10/08 08:36:07;;;;;;;72.82;35.83;;;9.30;99.90;;;;;;5031067;28;20061;-83
2021/10/08 08:38:32;;;;;;;77.32;35.63;;;9.40;99.90;;;;;;5013862;28;20040;-84
2021/10/08 08:41:22;;;;;;;;;;;;;;;;;;;;;
2021/10/08 08:44:15;;;;;;;70.70;33.55;;;9.60;99.90;;;;;;5014362;28;20065;-83
2021/10/08 08:46:41;;;;;;;61.75;32.05;;;9.70;99.90;;;;;;5012900;28;20073;-81
2021/10/08 08:49:07;;;;;;;67.72;32.72;;;9.70;99.90;;;;;;5011821;28;20046;-81
2021/10/08 08:51:32;;;;;;;57.97;31.83;;;9.80;99.90;;;;;;5000392;28;20120;-81
2021/10/08 08:54:06;;;;;;;58.72;31.48;;;10.40;99.90;;;;;;4985465;28;20049;-81
2021/10/08 08:56:32;;;;;;;59.15;30.63;;;9.90;99.90;;;;;;4998206;28;20127;-81
2021/10/08 08:59:10;;;;;;;60.58;31.75;;;10.30;99.90;;;;;;4999408;28;20056;-84
2021/10/08 09:02:03;;;;;;;65.63;32.28;;;10.00;99.90;;;;;;5014212;28;20061;-83
2021/10/08 09:04:30;;;;;;;71.35;33.95;;;10.20;99.90;;;;;;5002504;28;20133;-83
2021/10/08 09:06:56;;;;;;;70.00;33.72;;;10.30;99.90;;;;;;5030024;28;20056;-84
2021/10/08 09:09:24;;;;;;;52.38;29.67;;;10.40;99.90;;;;;;4992957;28;20107;-85
2021/10/08 09:11:51;;;;;;;55.72;29.90;;;10.50;99.90;;;;;;5010486;28;20053;-84
2021/10/08 09:14:26;;;;;;;61.60;31.10;;;10.80;99.90;;;;;;5005003;28;20427;-85
2021/10/08 09:17:29;;;;;;;;;;;10.70;99.90;;;;;;5025463;28;20088;-84
2021/10/08 09:20:10;;;;;;;52.78;28.52;;;10.80;99.90;;;;;;4914066;29;19935;-85
2021/10/08 09:22:45;;;;;;;60.50;30.73;;;10.90;99.90;;;;;;4928484;29;20063;-83
2021/10/08 09:25:15;;;;;;;;;;;11.00;99.90;;;;;;4921649;29;20147;-83
2021/10/08 09:28:17;;;;;;;47.67;26.48;;;11.20;99.90;;;;;;4914803;29;20374;-88
2021/10/08 09:30:50;;;;;;;44.75;26.15;;;11.20;99.90;;;;;;4860513;29;20053;-83
2021/10/08 09:33:20;;;;;;;47.88;27.30;;;11.30;99.90;;;;;;4873620;29;20532;-81
2021/10/08 09:36:10;;;;;;;40.90;25.33;;;11.50;99.90;;;;;;4859137;29;20065;-85
2021/10/08 09:38:42;;;;;;;49.55;28.23;;;11.60;99.90;;;;;;4855212;29;20061;-85
2021/10/08 09:41:08;;;;;;;42.95;25.40;;;11.80;99.90;;;;;;4874885;29;20425;-83
2021/10/08 09:43:36;;;;;;;50.83;28.90;;;12.10;99.90;;;;;;4857903;29;20037;-82
2021/10/08 09:46:04;;;;;;;41.55;24.40;;;12.20;99.90;;;;;;4855259;29;20533;-82
2021/10/08 09:48:46;;;;;;;38.10;24.38;;;12.30;99.90;;;;;;4872100;29;20527;-82
2021/10/08 09:51:17;;;;;;;46.58;25.13;;;12.40;99.90;;;;;;4839779;29;20104;-81
2021/10/08 09:53:48;;;;;;;42.75;26.00;;;12.60;99.90;;;;;;4889876;29;20146;-84
2021/10/08 09:56:37;;;;;;;36.85;24.58;;;12.70;99.90;;;;;;4927728;29;20041;-82
2021/10/08 09:59:11;;;;;;;41.97;24.90;;;12.60;99.90;;;;;;4909664;29;20039;-78
2021/10/08 10:01:41;;;;;;;37.60;22.67;;;12.90;99.90;;;;;;4895913;29;20155;-86
2021/10/08 10:04:44;;;;;;;37.35;23.45;;;13.00;99.90;;;;;;4926087;29;20460;-82
2021/10/08 10:07:11;;;;;;;33.70;22.17;;;13.20;99.90;;;;;;4959716;28;20120;-82
2021/10/08 10:09:39;;;;;;;40.03;23.58;;;13.40;99.90;;;;;;5008189;28;20448;-85
2021/10/08 10:12:06;;;;;;;36.92;22.85;;;13.60;99.90;;;;;;4994180;28;20052;-84
2021/10/08 10:14:51;;;;;;;34.63;22.98;;;13.70;99.90;;;;;;5005201;28;20065;-81
2021/10/08 10:17:17;;;;;;;32.65;21.25;;;14.00;99.90;;;;;;5008753;28;20078;-80
2021/10/08 10:19:45;;;;;;;34.15;22.30;;;14.10;99.90;;;;;;4991571;28;20057;-80
2021/10/08 10:22:17;;;;;;;30.83;20.92;;;14.20;99.90;;;;;;4994207;28;20073;-81
2021/10/08 10:24:46;;;;;;;27.52;19.08;;;14.40;99.90;;;;;;5005644;28;20060;-81
2021/10/08 10:27:14;;;;;;;28.65;19.33;;;14.50;99.90;;;;;;4990507;28;20137;-82
2021/10/08 10:29:41;;;;;;;26.23;19.10;;;14.70;99.90;;;;;;5008531;28;20130;-81
2021/10/08 10:32:30;;;;;;;31.58;20.95;;;14.80;99.90;;;;;;5005121;28;20866;-83
2021/10/08 10:35:03;;;;;;;30.70;19.10;;;15.00;99.90;;;;;;5008042;28;20149;-81
2021/10/08 10:37:42;;;;;;;32.17;18.55;;;15.10;99.90;;;;;;5023805;28;20449;-81
2021/10/08 10:40:24;;;;;;;31.15;20.08;;;15.20;99.90;;;;;;4993242;28;20053;-82
2021/10/08 10:43:15;;;;;;;26.92;19.90;;;15.30;99.90;;;;;;5005594;28;20053;-83
2021/10/08 10:45:45;;;;;;;30.35;20.10;;;15.30;99.90;;;;;;4987080;28;20049;-85
2021/10/08 10:48:20;;;;;;;30.27;20.05;;;15.40;99.90;;;;;;5009966;28;20080;-83
2021/10/08 10:51:10;;;;;;;30.58;20.63;;;15.30;99.90;;;;;;5008185;28;20133;-81
2021/10/08 10:53:52;;;;;;;28.20;20.98;;;15.30;99.90;;;;;;5005702;28;20068;-83
2021/10/08 10:56:36;;;;;;;31.90;21.52;;;15.40;99.90;;;;;;4991803;28;20068;-83
2021/10/08 10:59:24;;;;;;;27.48;19.77;;;15.70;99.90;;;;;;5003786;28;20045;-80
2021/10/08 11:04:32;;;;;;;28.27;20.05;;;15.80;99.90;;;;;;5004077;28;20511;-81
2021/10/08 11:07:15;;;;;;;30.75;20.75;;;15.80;99.90;;;;;;5003704;28;20061;-81
2021/10/08 11:09:43;;;;;;;30.98;20.83;;;15.90;99.90;;;;;;5009262;28;20128;-82
2021/10/08 11:12:38;;;;;;;28.17;19.00;;;16.10;99.90;;;;;;4990863;28;20042;-83
2021/10/08 11:15:17;;;;;;;26.83;17.45;;;16.50;99.90;;;;;;5006721;28;20062;-81
2021/10/08 11:18:04;;;;;;;21.45;16.80;;;16.60;99.90;;;;;;4989510;28;20056;-79
2021/10/08 11:20:42;;;;;;;20.85;15.98;;;16.90;99.90;;;;;;5003742;28;20045;-82
2021/10/08 11:23:19;;;;;;;20.17;15.48;;;16.90;99.90;;;;;;5001607;28;20038;-80
2021/10/08 11:25:48;;;;;;;24.00;14.80;;;17.10;99.90;;;;;;5003002;28;20046;-77
2021/10/08 11:28:17;;;;;;;22.45;15.10;;;17.30;99.90;;;;;;5003361;28;20045;-81
2021/10/08 11:30:49;;;;;;;21.33;15.73;;;17.40;99.90;;;;;;4970510;28;20050;-81
2021/10/08 11:33:15;;;;;;;23.02;16.20;;;17.60;99.90;;;;;;4972420;28;20203;-85
2021/10/08 11:35:40;;;;;;;22.30;14.20;;;17.50;99.90;;;;;;4984654;28;20393;-85
2021/10/08 11:38:06;;;;;;;22.23;13.63;;;17.60;99.90;;;;;;4979513;28;20088;-86
2021/10/08 11:40:36;;;;;;;18.88;14.23;;;17.80;99.90;;;;;;4988689;28;20122;-79
2021/10/08 11:43:11;;;;;;;20.38;13.30;;;18.00;99.90;;;;;;4990719;28;20104;-79
2021/10/08 11:46:03;;;;;;;16.55;12.35;;;18.10;99.90;;;;;;4993987;28;20050;-79
2021/10/08 11:48:46;;;;;;;18.17;11.00;;;18.00;99.90;;;;;;4983701;28;20038;-80
2021/10/08 11:51:12;;;;;;;15.20;11.48;;;18.20;99.90;;;;;;4984932;28;20065;-82
2021/10/08 11:53:43;;;;;;;12.02;9.85;;;18.40;99.90;;;;;;4974777;28;20478;-79
2021/10/08 11:56:24;;;;;;;13.73;11.23;;;18.40;99.90;;;;;;4988302;28;20061;-81
2021/10/08 11:58:59;;;;;;;13.80;9.80;;;18.10;99.90;;;;;;4985227;28;20050;-81
2021/10/08 12:01:26;;;;;;;10.98;8.07;;;18.40;99.90;;;;;;4985357;28;20046;-80
2021/10/08 12:03:53;;;;;;;11.20;8.68;;;18.50;99.90;;;;;;4983811;28;20367;-80
2021/10/08 12:06:22;;;;;;;10.18;8.05;;;18.70;99.90;;;;;;4972033;28;20045;-81
2021/10/08 12:08:49;;;;;;;11.27;8.38;;;19.00;99.90;;;;;;4986512;28;20053;-81
2021/10/08 12:11:16;;;;;;;12.43;8.02;;;19.00;99.90;;;;;;4966198;28;20054;-80
2021/10/08 12:14:07;;;;;;;8.00;7.20;;;18.90;99.90;;;;;;4976940;28;20116;-80
2021/10/08 12:16:45;;;;;;;7.97;7.05;;;19.20;99.90;;;;;;4997606;28;20492;-81
2021/10/08 12:19:12;;;;;;;8.25;7.40;;;19.10;99.90;;;;;;4984084;28;20053;-81
2021/10/08 12:21:39;;;;;;;8.80;7.35;;;19.30;99.90;;;;;;5002072;28;20069;-80
2021/10/08 12:24:20;;;;;;;8.55;7.30;;;19.70;99.90;;;;;;4992220;28;20046;-79
2021/10/08 12:26:55;;;;;;;7.63;6.70;;;19.80;99.90;;;;;;5002924;28;20046;-82
2021/10/08 12:29:21;;;;;;;6.43;5.78;;;19.90;99.90;;;;;;4988001;28;20116;-82
2021/10/08 12:31:56;;;;;;;9.23;6.80;;;20.10;99.90;;;;;;4975136;28;20104;-81
2021/10/08 12:34:47;;;;;;;9.38;8.30;;;19.80;99.90;;;;;;4990226;28;20070;-83
2021/10/08 12:37:14;;;;;;;7.88;6.03;;;19.70;99.90;;;;;;5011623;28;20057;-81
2021/10/08 12:39:57;;;;;;;6.25;5.38;;;19.40;99.90;;;;;;4994578;28;20061;-81
2021/10/08 12:42:25;;;;;;;6.50;5.40;;;19.60;99.90;;;;;;4973358;28;20053;-81
2021/10/08 12:44:55;;;;;;;5.93;5.13;;;19.80;99.90;;;;;;4962787;28;20054;-81
2021/10/08 12:47:27;;;;;;;6.22;5.18;;;19.90;99.90;;;;;;4994417;28;20061;-81
2021/10/08 12:49:53;;;;;;;5.47;4.47;;;20.20;99.90;;;;;;4969621;28;20672;-81